• Join FlightAware (Why Join?)
  • Login
  • US Flag 
04:16AM EDT


 

Airport Tracker/Info


-or-


 

Live Flight TrackerFlight Track Log ✈ N1250V ✈ 13-Jun-2013 ✈ KASE - KBJC

Flight Track Log - Related Links

Times and Time Zones

All times are in EDT time to prevent confusion due to time zone crossing. See the N1250V flight status page for this flight to view local times or setup timezone preferences in your user account.

Time Position Orientation Groundspeed Altitude Reporting Facility
EDT Latitude Longitude Course Direction KTS MPH feet Rate Location/Type
01:05PM 39.2517 -106.8739 62° Northeast 179 206 9,000  Level Denver Center
01:06PM 39.2742 -106.9236 300° West 163 188 11,300 2,220 Climbing Denver Center
01:07PM 39.2972 -106.9706 302° West 165 190 13,600 1,860 Climbing Denver Center
01:08PM 39.3539 -106.9769 355° North 213 245 15,200 1,500 Climbing Denver Center
01:09PM 39.3667 -106.8981 78° East 238 274 16,800 1,560 Climbing Denver Center
01:10PM 39.3592 -106.7844 95° East 266 306 18,500 1,020 Climbing Denver Center
01:11PM 39.4179 -106.3788 62° Northeast  Level Estimated
01:11PM 39.3589 -106.6872 90° East 272 313 19,000  Level Denver Center
01:12PM 39.3544 -106.5778 93° East 298 343 19,000  Level Denver Center
01:13PM 39.3506 -106.4700 93° East 301 346 19,100  Climbing Denver Center
01:14PM 39.3364 -106.3719 101° East 280 322 19,000 -60 Descending Denver Center
01:16PM 39.3233 -106.2756 100° East 274 315 19,000  Level Denver Center
01:17PM 39.3067 -106.1589 100° East 277 319 19,000  Level Denver Center
01:18PM 39.2919 -106.0567 101° East 278 320 19,000  Level Denver Center
01:19PM 39.2947 -105.9539 88° East 288 331 19,100  Climbing Denver Center
01:20PM 39.3006 -105.8528 86° East 285 328 19,000 -60 Descending Denver Center
01:21PM 39.3072 -105.7497 85° East 289 333 19,000  Level Denver Center
01:22PM 39.3189 -105.6500 81° East 289 333 19,000  Level Denver Center
01:23PM 39.3600 -105.5586 60° Northeast 296 341 19,000  Level Denver Center
01:24PM 39.4114 -105.4442 60° Northeast 336 387 19,000 -660 Level Denver Center
01:25PM 39.4681 -105.3433 54° Northeast 321 369 17,700 -1,740 Descending Denver Center
01:26PM 39.5128 -105.2561 56° Northeast 294 338 15,500 -2,280 Descending Denver Center
01:27PM 39.5614 -105.1650 55° Northeast 282 325 13,100 -2,220 Descending Denver Center
01:28PM 39.6233 -105.1097 34° Northeast 278 320 11,000 -2,160 Descending Denver Center
01:29PM 39.6972 -105.0756 20° North 265 305 8,700 -1,440 Descending Denver Center
01:30PM 39.7636 -105.0506 16° North 249 287 8,000 -660 Descending Denver Center
01:31PM 39.8244 -105.0336 12° North 228 262 7,400 -660 Descending Denver Center
01:32PM 39.8686 -105.0400 354° North 145 167 6,700 -660 Descending Denver Center
01:33PM 39.8881 -105.0772 304° West 125 144 6,100 -540 Descending Denver Center
01:34PM 39.9072 -105.1142 304° West 113 130 5,600 -540 Descending Denver Center
01:36PM 39.9000 -105.1167 218° Southwest  Level FlightAware Approximate
01:43PM 39.9088 -105.1172 218° Southwest  Level Estimated
01:44PM 39.9088 -105.1172 218° Southwest  Level Estimated
01:45PM 39.9088 -105.1172 218° Southwest  Level Estimated